Monday, December 18, 2017, 5:14 PM EST
Back to Local

KACK, Nantucket Memorial Airport

Location: Nantucket, MA, United States Lat: 41.25
Local Time: 5:14 PM EST (22:14 GMT) Lon: -70.067
Time Zone: US/Eastern Elev: 49 ft

Show me the last for .
Show Decoded

2017-12-18 16:53 METAR KACK 182153Z 14009KT 9SM -RA FEW020 OVC031 04/04 A2997 RMK AO2 RAB15
                 SLP148 P0001 T00440039 =
2017-12-18 16:45 METAR KACK 182145Z 14009KT 8SM -RA FEW019 SCT025 OVC030 04/04 A2997 RMK AO2
                 RAB15 P0001 T00440039 =
2017-12-18 15:53 METAR KACK 182053Z 14009KT 10SM OVC017 04/03 A2999 RMK AO2 RAE09 SLP154 P0000
                 60000 T00390033 56012 =
2017-12-18 15:48 METAR KACK 182048Z 14008KT 10SM OVC017 04/03 A2999 RMK AO2 RAE09 P0000 =
2017-12-18 15:18 METAR KACK 182018Z 14009KT 5SM BR FEW013 FEW026 OVC034 03/03 A3000 RMK AO2 RAE09
                 P0000 T00330028 =
2017-12-18 14:53 METAR KACK 181953Z AUTO 14009KT 3SM -RA BR BKN006 OVC039 03/02 A3000 RMK AO2
                 RAB21 SLP159 P0000 T00330022 TSNO =
2017-12-18 14:42 METAR KACK 181942Z 15011KT 5SM -RA BR BKN005 OVC039 03/02 A3001 RMK AO2 RAB21
                 P0000 T00330017 =
2017-12-18 13:53 METAR KACK 181853Z 15010KT 10SM OVC040 04/00 A3002 RMK AO2 SLP166 T00390000 =
2017-12-18 12:53 METAR KACK 181753Z 15008KT 10SM OVC060 03/M01 A3004 RMK AO2 SLP173 T00331011
                 10033 21022 56040 =
2017-12-18 11:53 METAR KACK 181653Z 14007KT 10SM BKN065 OVC080 03/M02 A3007 RMK AO2 SLP182
                 T00331022 =
2017-12-18 10:53 METAR KACK 181553Z 14006KT 10SM OVC050 03/M04 A3012 RMK AO2 SLP199 T00281039 =
2017-12-18 09:53 METAR KACK 181453Z 16006KT 10SM OVC055 02/M05 A3016 RMK AO2 SLP213 T00171050
                 56012 =
2017-12-18 08:53 METAR KACK 181353Z 15005KT 10SM FEW029 OVC060 01/M06 A3018 RMK AO2 SLP218
                 T00111061 =
2017-12-18 08:49 METAR KACK 181349Z 14006KT 10SM SCT029 OVC060 01/M06 A3018 RMK AO2 =
2017-12-18 07:53 METAR KACK 181253Z 00000KT 10SM OVC029 M01/M04 A3020 RMK AO2 SLP225 T10061044 =
2017-12-18 07:38 METAR KACK 181238Z 00000KT 10SM BKN029 OVC100 M01/M06 A3019 RMK AO2 T10061056 =
2017-12-18 06:53 METAR KACK 181153Z 00000KT 10SM OVC110 M02/M05 A3018 RMK AO2 SLP220 T10221050
                 11017 21039 56009 =
2017-12-18 05:53 METAR KACK 181053Z 03003KT 10SM OVC110 M02/M06 A3019 RMK AO2 SLP222 T10221061 =
2017-12-18 04:53 METAR KACK 180953Z AUTO 00000KT 10SM SCT110 M02/M06 A3019 RMK AO2 SLP223
                 T10221061 TSNO =
2017-12-18 03:53 METAR KACK 180853Z AUTO 00000KT 10SM OVC110 M02/M07 A3021 RMK AO2 SLP229
                 T10221067 58007 TSNO =
2017-12-18 02:53 METAR KACK 180753Z AUTO 00000KT 10SM FEW075 FEW085 BKN110 M03/M07 A3022 RMK AO2
                 SLP232 T10281067 TSNO =
2017-12-18 01:53 METAR KACK 180653Z AUTO 00000KT 10SM CLR M03/M08 A3023 RMK AO2 SLP236 T10281078
                 TSNO =
2017-12-18 00:53 METAR KACK 180553Z AUTO 00000KT 10SM CLR M03/M09 A3023 RMK AO2 SLP236 T10331094
                 11017 21039 56011 TSNO =
2017-12-17 23:53 METAR KACK 180453Z AUTO 00000KT 10SM CLR M03/M10 A3024 RMK AO2 SLP239 T10281100
                 410171044 TSNO =
2017-12-17 22:53 METAR KACK 180353Z AUTO 35003KT 10SM CLR M02/M11 A3025 RMK AO2 SLP242 T10221106
                 TSNO =
2017-12-17 21:53 METAR KACK 180253Z AUTO 34003KT 10SM CLR M02/M12 A3026 RMK AO2 SLP247 T10171122
                 58002 TSNO =
2017-12-17 20:53 METAR KACK 180153Z AUTO 34005KT 10SM CLR M02/M11 A3028 RMK AO2 SLP252 T10171111
                 TSNO =
2017-12-17 19:53 METAR KACK 180053Z 32005KT 10SM CLR M03/M11 A3027 RMK AO2 SLP251 T10281106 =
2017-12-17 18:53 METAR KACK 172353Z 31003KT 10SM CLR M03/M10 A3027 RMK AO2 SLP250 T10281100 11017
                 21044 53010 =
2017-12-17 17:53 METAR KACK 172253Z 00000KT 10SM CLR M04/M10 A3025 RMK AO2 SLP244 T10441100 =

Support USWX by starting your Amazon purchase here.